Time;durP1;ratioP1;P1;durP2;ratioP2;P2;SDS_P1;SDS_P2;PMS_P1;PMS_P2;Temp;Humidity;BMP_temperature;BMP_pressure;BME280_temperature;BME280_humidity;BME280_pressure;Samples;Min_cycle;Max_cycle;Signal;HPM_P1;HPM_P2
2024/01/04 00:01:38;;;;;;;14.40;9.50;;;;;;;5.23;100.00;99114.02;105432;1257;62357;-75
2024/01/04 00:04:06;;;;;;;14.70;10.20;;;;;;;5.26;100.00;99114.21;105378;1258;72743;-74
2024/01/04 00:06:33;;;;;;;13.00;10.00;;;;;;;5.29;100.00;99116.08;105875;1260;60374;-74
2024/01/04 00:09:00;;;;;;;16.10;10.60;;;;;;;5.32;100.00;99114.13;106933;1261;59680;-73
2024/01/04 00:11:28;;;;;;;14.70;10.60;;;;;;;5.35;100.00;99114.48;106839;1258;71973;-72
2024/01/04 00:13:55;;;;;;;14.50;9.10;;;;;;;5.39;100.00;99112.34;106833;1262;63741;-72
2024/01/04 00:16:24;;;;;;;13.40;9.80;;;;;;;5.43;100.00;99115.73;107523;1260;72891;-72
2024/01/04 00:18:51;;;;;;;14.80;10.10;;;;;;;5.48;100.00;99113.01;108325;1256;61467;-73
2024/01/04 00:21:19;;;;;;;19.40;10.10;;;;;;;5.51;100.00;99110.34;108866;1256;58957;-74
2024/01/04 00:23:46;;;;;;;15.10;9.80;;;;;;;5.55;100.00;99110.08;108105;1257;71796;-74
2024/01/04 00:26:14;;;;;;;16.50;10.40;;;;;;;5.59;100.00;99104.12;105395;1261;63764;-74
2024/01/04 00:28:42;;;;;;;18.20;10.30;;;;;;;5.62;100.00;99101.86;105519;1256;70388;-75
2024/01/04 00:31:10;;;;;;;14.40;10.00;;;;;;;5.65;100.00;99107.23;105663;1262;59813;-75
2024/01/04 00:33:39;;;;;;;14.80;9.90;;;;;;;5.66;100.00;99104.38;105659;1258;59539;-78
2024/01/04 00:36:09;;;;;;;15.50;9.50;;;;;;;5.69;100.00;99105.76;105568;1257;72988;-76
2024/01/04 00:38:38;;;;;;;19.30;9.80;;;;;;;5.71;100.00;99105.06;105599;1262;63584;-75
2024/01/04 00:41:06;;;;;;;21.30;10.20;;;;;;;5.73;100.00;99105.83;105616;1258;73133;-75
2024/01/04 00:43:33;;;;;;;18.20;9.00;;;;;;;5.75;100.00;99103.77;105351;1260;60200;-76
2024/01/04 00:46:01;;;;;;;17.20;10.20;;;;;;;5.76;100.00;99101.45;105565;1263;59603;-76
2024/01/04 00:48:29;;;;;;;14.30;10.10;;;;;;;5.78;100.00;99105.00;105810;1260;73038;-73
2024/01/04 00:50:58;;;;;;;18.80;9.60;;;;;;;5.78;100.00;99105.83;105499;1261;63766;-74
2024/01/04 00:53:25;;;;;;;13.30;8.40;;;;;;;5.80;100.00;99107.80;105569;1261;74821;-73
2024/01/04 00:55:53;;;;;;;14.80;9.20;;;;;;;5.82;100.00;99110.81;105665;1261;60852;-74
2024/01/04 00:58:20;;;;;;;18.70;10.10;;;;;;;5.83;100.00;99106.23;105532;1270;59625;-74
2024/01/04 01:00:48;;;;;;;16.50;9.70;;;;;;;5.84;100.00;99106.50;105385;1257;72994;-76
2024/01/04 01:03:16;;;;;;;22.70;11.50;;;;;;;5.86;100.00;99106.21;105684;1261;62266;-76
2024/01/04 01:05:44;;;;;;;14.00;9.30;;;;;;;5.88;100.00;99104.38;105592;1257;71243;-75
2024/01/04 01:08:12;;;;;;;13.30;9.60;;;;;;;5.89;100.00;99104.11;105629;1262;60623;-74
2024/01/04 01:10:40;;;;;;;12.50;8.30;;;;;;;5.92;100.00;99104.27;105710;1261;59628;-73
2024/01/04 01:13:08;;;;;;;16.30;10.40;;;;;;;5.94;100.00;99103.60;106215;1260;73758;-73
2024/01/04 01:15:36;;;;;;;16.50;9.90;;;;;;;5.97;100.00;99103.10;105760;1254;62410;-74
2024/01/04 01:18:04;;;;;;;18.10;10.40;;;;;;;5.99;100.00;99102.48;105580;1260;72582;-75
2024/01/04 01:20:32;;;;;;;14.70;9.30;;;;;;;6.00;100.00;99100.83;105576;1256;59895;-74
2024/01/04 01:22:59;;;;;;;19.00;11.60;;;;;;;6.03;100.00;99101.17;105659;1260;60132;-78
2024/01/04 01:25:27;;;;;;;16.80;9.90;;;;;;;6.04;100.00;99105.61;105516;1254;71570;-76
2024/01/04 01:27:54;;;;;;;18.60;10.00;;;;;;;6.06;100.00;99103.20;105712;1254;62259;-77
2024/01/04 01:30:22;;;;;;;15.90;9.90;;;;;;;6.08;100.00;99108.27;105702;1257;70952;-77
2024/01/04 01:32:50;;;;;;;16.20;10.00;;;;;;;6.10;100.00;99103.15;105741;1260;59686;-77
2024/01/04 01:35:18;;;;;;;19.60;11.90;;;;;;;6.11;100.00;99103.23;105668;1260;59533;-78
2024/01/04 01:37:45;;;;;;;19.80;10.20;;;;;;;6.11;100.00;99100.41;105537;1260;70896;-77
2024/01/04 01:40:13;;;;;;;20.40;10.90;;;;;;;6.13;100.00;99098.95;106363;1255;63652;-74
2024/01/04 01:42:46;;;;;;;26.30;12.20;;;;;;;6.15;100.00;99098.09;105816;1260;71384;-77
2024/01/04 01:45:13;;;;;;;20.10;10.40;;;;;;;6.18;100.00;99097.89;105635;1258;60962;-77
2024/01/04 01:47:41;;;;;;;21.80;12.00;;;;;;;6.20;100.00;99096.07;105639;1260;59639;-76
2024/01/04 01:50:09;;;;;;;21.00;11.30;;;;;;;6.20;100.00;99101.05;105700;1254;71818;-75
2024/01/04 01:52:36;;;;;;;18.30;11.90;;;;;;;6.21;100.00;99105.13;105739;1263;63648;-75
2024/01/04 01:55:04;;;;;;;17.60;11.60;;;;;;;6.22;100.00;99105.63;105639;1261;70850;-75
2024/01/04 01:57:33;;;;;;;21.90;11.10;;;;;;;6.23;100.00;99105.73;105695;1254;59813;-76
2024/01/04 02:00:01;;;;;;;21.20;10.70;;;;;;;6.24;100.00;99101.00;105388;1260;59657;-77
2024/01/04 02:02:38;;;;;;;23.00;12.00;;;;;;;6.24;100.00;99101.14;105588;1260;73522;-76
2024/01/04 02:05:07;;;;;;;26.00;11.70;;;;;;;6.22;100.00;99096.23;105480;1261;63746;-76
2024/01/04 02:07:35;;;;;;;17.30;10.80;;;;;;;6.19;100.00;99092.09;105528;1257;71552;-77
2024/01/04 02:10:04;;;;;;;23.00;11.90;;;;;;;6.18;100.00;99093.06;106335;1255;59616;-73
2024/01/04 02:12:31;;;;;;;21.00;13.50;;;;;;;6.16;100.00;99092.13;107151;1255;59657;-72
2024/01/04 02:14:59;;;;;;;19.90;12.50;;;;;;;6.16;100.00;99091.98;106617;1254;73067;-72
2024/01/04 02:17:28;;;;;;;23.00;13.60;;;;;;;6.15;100.00;99091.83;107208;1254;63857;-74
2024/01/04 02:19:57;;;;;;;26.10;13.10;;;;;;;6.16;100.00;99091.64;107182;1254;71700;-72
2024/01/04 02:22:24;;;;;;;18.70;11.60;;;;;;;6.16;100.00;99097.67;106409;1254;59730;-72
2024/01/04 02:24:52;;;;;;;20.50;12.30;;;;;;;6.16;100.00;99097.31;106867;1256;59621;-72
2024/01/04 02:27:19;;;;;;;20.90;13.50;;;;;;;6.14;100.00;99097.95;108525;1253;73807;-74
2024/01/04 02:29:47;;;;;;;22.10;13.30;;;;;;;6.14;100.00;99100.95;108826;1256;62501;-72
2024/01/04 02:32:15;;;;;;;21.10;13.90;;;;;;;6.13;100.00;99103.06;106841;1254;73237;-75
2024/01/04 02:34:42;;;;;;;22.90;13.70;;;;;;;6.13;100.00;99095.80;105721;1257;60914;-73
2024/01/04 02:37:10;;;;;;;19.00;13.40;;;;;;;6.11;100.00;99095.27;105782;1257;60420;-77
2024/01/04 02:39:38;;;;;;;23.70;13.10;;;;;;;6.08;100.00;99093.52;105806;1257;73979;-76
2024/01/04 02:42:05;;;;;;;22.20;13.10;;;;;;;6.07;100.00;99091.17;105742;1257;63568;-76
2024/01/04 02:44:34;;;;;;;20.50;12.70;;;;;;;6.05;100.00;99099.98;105700;1254;70099;-76
2024/01/04 02:47:01;;;;;;;25.30;12.70;;;;;;;6.02;100.00;99100.67;105693;1253;60977;-74
2024/01/04 02:49:29;;;;;;;23.20;13.50;;;;;;;6.01;100.00;99102.12;105665;1258;60365;-77
2024/01/04 02:51:56;;;;;;;25.20;12.70;;;;;;;6.01;100.00;99100.75;105741;1257;71880;-77
2024/01/04 02:54:24;;;;;;;24.20;13.90;;;;;;;6.00;100.00;99099.76;105710;1258;63611;-74
2024/01/04 02:56:51;;;;;;;28.10;16.00;;;;;;;6.00;100.00;99099.76;105590;1253;72699;-77
2024/01/04 02:59:19;;;;;;;22.60;15.40;;;;;;;6.00;100.00;99093.88;105679;1255;60488;-76
2024/01/04 03:01:48;;;;;;;24.20;13.50;;;;;;;6.00;100.00;99091.80;105660;1257;60601;-76
2024/01/04 03:04:16;;;;;;;27.00;14.80;;;;;;;6.00;100.00;99087.61;105690;1256;73802;-75
2024/01/04 03:06:43;;;;;;;24.30;13.00;;;;;;;5.99;100.00;99097.21;105848;1251;63716;-76
2024/01/04 03:09:11;;;;;;;25.10;13.30;;;;;;;5.97;100.00;99095.63;105707;1257;72743;-74
2024/01/04 03:11:38;;;;;;;26.10;14.50;;;;;;;5.96;100.00;99093.99;105823;1251;60862;-77
2024/01/04 03:14:06;;;;;;;23.80;16.20;;;;;;;5.93;100.00;99090.14;105674;1251;61335;-77
2024/01/04 03:16:33;;;;;;;23.30;13.90;;;;;;;5.91;100.00;99100.69;105808;1257;74554;-74
2024/01/04 03:19:02;;;;;;;24.10;13.10;;;;;;;5.89;100.00;99096.65;105780;1254;62262;-75
2024/01/04 03:21:29;;;;;;;23.00;13.50;;;;;;;5.86;100.00;99099.48;105767;1253;72731;-75
2024/01/04 03:23:57;;;;;;;22.60;12.90;;;;;;;5.81;100.00;99100.30;105700;1251;60809;-75
2024/01/04 03:26:24;;;;;;;33.10;17.00;;;;;;;5.75;100.00;99101.72;105774;1253;60422;-75
2024/01/04 03:28:52;;;;;;;21.90;13.60;;;;;;;5.66;100.00;99110.98;105704;1251;73015;-75
2024/01/04 03:31:19;;;;;;;26.10;13.20;;;;;;;5.56;100.00;99111.75;105851;1256;63724;-75
2024/01/04 03:33:49;;;;;;;25.10;13.30;;;;;;;5.48;100.00;99113.48;105768;1253;72762;-76
2024/01/04 03:36:17;;;;;;;24.70;13.00;;;;;;;5.42;100.00;99120.67;105835;1254;60506;-75
2024/01/04 03:38:45;;;;;;;29.20;14.90;;;;;;;5.36;100.00;99118.94;105792;1251;60408;-75
2024/01/04 03:41:13;;;;;;;29.00;13.90;;;;;;;5.29;100.00;99118.33;105740;1257;71957;-77
2024/01/04 03:43:41;;;;;;;26.60;13.80;;;;;;;5.23;100.00;99123.90;105745;1253;62271;-74
2024/01/04 03:46:08;;;;;;;24.70;14.40;;;;;;;5.19;100.00;99123.09;105849;1251;72766;-76
2024/01/04 03:48:36;;;;;;;19.30;12.30;;;;;;;5.16;100.00;99123.67;105749;1257;60483;-76
2024/01/04 03:51:05;;;;;;;24.40;13.90;;;;;;;5.12;100.00;99126.63;105776;1256;60329;-76
2024/01/04 03:53:32;;;;;;;21.10;13.60;;;;;;;5.09;100.00;99127.19;105773;1256;73932;-74
2024/01/04 03:55:59;;;;;;;23.90;12.60;;;;;;;5.05;100.00;99129.52;105884;1256;63727;-74
2024/01/04 03:58:27;;;;;;;25.00;14.40;;;;;;;5.03;100.00;99133.65;105954;1251;72664;-75
2024/01/04 04:00:56;;;;;;;27.10;14.30;;;;;;;5.01;100.00;99132.20;105833;1253;60455;-75
2024/01/04 04:03:23;;;;;;;27.40;13.60;;;;;;;4.97;100.00;99132.02;105882;1251;60540;-76
2024/01/04 04:05:51;;;;;;;19.50;12.40;;;;;;;4.95;100.00;99136.88;105806;1253;73833;-76
2024/01/04 04:08:19;;;;;;;19.90;12.50;;;;;;;4.92;100.00;99134.77;105740;1256;63570;-75
2024/01/04 04:10:46;;;;;;;19.70;11.80;;;;;;;4.90;100.00;99133.55;105829;1253;71382;-75
2024/01/04 04:13:13;;;;;;;22.00;12.80;;;;;;;4.87;100.00;99136.63;105819;1254;60466;-76
2024/01/04 04:15:41;;;;;;;22.90;13.60;;;;;;;4.83;100.00;99141.91;105801;1251;60656;-75
2024/01/04 04:18:08;;;;;;;27.20;14.30;;;;;;;4.81;100.00;99150.19;105691;1256;73788;-74
2024/01/04 04:20:37;;;;;;;21.50;13.20;;;;;;;4.77;100.00;99155.09;105794;1257;62287;-76
2024/01/04 04:23:05;;;;;;;25.50;13.80;;;;;;;4.74;100.00;99157.53;105860;1256;71454;-74
2024/01/04 04:25:36;;;;;;;19.60;13.40;;;;;;;4.71;100.00;99159.08;105846;1257;60523;-75
2024/01/04 04:28:03;;;;;;;27.30;13.80;;;;;;;4.69;100.00;99158.83;105813;1251;60339;-77
2024/01/04 04:30:31;;;;;;;27.00;14.20;;;;;;;4.66;100.00;99163.00;105923;1251;73831;-77
2024/01/04 04:32:59;;;;;;;28.70;14.20;;;;;;;4.64;100.00;99162.98;105788;1253;63557;-77
2024/01/04 04:35:26;;;;;;;39.60;17.90;;;;;;;4.60;100.00;99168.88;105702;1257;70645;-76
2024/01/04 04:37:54;;;;;;;24.70;14.50;;;;;;;4.58;100.00;99170.92;105679;1257;60835;-77
2024/01/04 04:40:21;;;;;;;27.50;15.90;;;;;;;4.56;100.00;99169.84;105702;1257;60400;-77
2024/01/04 04:42:49;;;;;;;26.60;15.30;;;;;;;4.53;100.00;99181.75;105780;1256;74573;-76
2024/01/04 04:45:17;;;;;;;26.70;16.80;;;;;;;4.52;100.00;99187.91;105907;1256;63673;-76
2024/01/04 04:47:45;;;;;;;27.20;15.10;;;;;;;4.49;100.00;99185.66;105974;1257;72692;-77
2024/01/04 04:50:13;;;;;;;26.30;15.40;;;;;;;4.45;100.00;99192.44;105663;1253;60515;-75
2024/01/04 04:52:40;;;;;;;27.20;16.50;;;;;;;4.43;100.00;99188.77;105762;1257;60422;-77
2024/01/04 04:55:08;;;;;;;33.60;17.60;;;;;;;4.41;100.00;99190.63;105878;1251;73297;-77
2024/01/04 04:57:36;;;;;;;29.70;17.70;;;;;;;4.41;100.00;99190.80;105678;1251;63549;-76
2024/01/04 05:00:05;;;;;;;28.10;16.20;;;;;;;4.41;100.00;99194.92;105887;1251;72751;-77
2024/01/04 05:02:32;;;;;;;27.90;17.30;;;;;;;4.41;100.00;99195.29;105807;1253;60505;-77
2024/01/04 05:05:00;;;;;;;35.90;19.00;;;;;;;4.45;100.00;99200.09;105977;1256;60365;-76
2024/01/04 05:07:28;;;;;;;29.30;17.50;;;;;;;4.48;100.00;99207.84;105968;1251;73103;-76
2024/01/04 05:09:56;;;;;;;28.50;17.30;;;;;;;4.52;100.00;99214.91;105844;1251;62646;-77
2024/01/04 05:12:23;;;;;;;29.50;17.50;;;;;;;4.56;100.00;99217.76;105863;1251;72711;-76
2024/01/04 05:14:50;;;;;;;24.40;17.20;;;;;;;4.61;100.00;99220.27;105867;1252;60859;-76
2024/01/04 05:17:18;;;;;;;26.60;16.50;;;;;;;4.65;100.00;99218.13;105638;1256;60448;-77
2024/01/04 05:19:45;;;;;;;29.30;14.80;;;;;;;4.67;100.00;99220.79;105708;1256;73854;-76
2024/01/04 05:22:13;;;;;;;24.10;14.30;;;;;;;4.68;100.00;99220.70;105831;1251;62860;-75
2024/01/04 05:24:41;;;;;;;22.00;14.00;;;;;;;4.70;100.00;99225.46;105849;1253;70657;-77
2024/01/04 05:27:09;;;;;;;23.80;14.20;;;;;;;4.70;100.00;99230.29;105953;1251;60919;-76
2024/01/04 05:29:36;;;;;;;21.50;13.80;;;;;;;4.70;100.00;99234.43;105736;1256;60426;-76
2024/01/04 05:32:04;;;;;;;16.40;11.50;;;;;;;4.70;100.00;99237.04;106373;1251;75156;-73
2024/01/04 05:34:32;;;;;;;22.50;12.70;;;;;;;4.69;100.00;99227.27;106437;1251;61709;-78
2024/01/04 05:37:00;;;;;;;16.00;10.50;;;;;;;4.68;100.00;99234.71;105832;1253;71415;-76
2024/01/04 05:39:27;;;;;;;21.50;12.90;;;;;;;4.68;100.00;99238.70;105861;1252;60531;-76
2024/01/04 05:41:57;;;;;;;20.80;12.20;;;;;;;4.70;100.00;99240.54;105881;1257;60411;-76
2024/01/04 05:44:24;;;;;;;21.00;12.70;;;;;;;4.72;100.00;99233.46;105731;1251;72560;-76
2024/01/04 05:46:52;;;;;;;21.30;12.40;;;;;;;4.73;100.00;99242.39;105762;1257;63534;-75
2024/01/04 05:49:20;;;;;;;18.70;11.70;;;;;;;4.73;100.00;99242.75;105677;1253;71447;-75
2024/01/04 05:51:48;;;;;;;22.80;12.90;;;;;;;4.73;100.00;99252.79;105786;1254;60552;-76
2024/01/04 05:54:16;;;;;;;19.60;11.60;;;;;;;4.74;100.00;99256.39;105838;1251;60650;-78
2024/01/04 05:56:44;;;;;;;20.20;12.20;;;;;;;4.75;100.00;99261.52;105934;1256;71965;-79
2024/01/04 05:59:12;;;;;;;24.20;12.60;;;;;;;4.77;100.00;99268.31;105784;1257;62770;-77
2024/01/04 06:01:39;;;;;;;20.90;12.10;;;;;;;4.81;100.00;99281.77;105845;1253;73102;-77
2024/01/04 06:04:07;;;;;;;19.60;12.60;;;;;;;4.84;100.00;99282.26;105957;1251;61352;-78
2024/01/04 06:06:34;;;;;;;17.60;11.20;;;;;;;4.89;100.00;99283.39;105785;1256;60349;-79
2024/01/04 06:09:03;;;;;;;19.30;11.80;;;;;;;4.92;100.00;99274.89;105689;1253;74086;-77
2024/01/04 06:11:31;;;;;;;15.50;11.90;;;;;;;4.95;100.00;99265.53;105993;1251;63388;-79
2024/01/04 06:13:59;;;;;;;19.50;12.50;;;;;;;4.97;100.00;99272.34;105805;1253;72602;-77
2024/01/04 06:16:26;;;;;;;16.20;11.30;;;;;;;5.01;100.00;99283.02;105799;1251;63461;-79
2024/01/04 06:18:54;;;;;;;20.10;12.00;;;;;;;5.05;100.00;99275.00;105692;1253;60467;-78
2024/01/04 06:21:22;;;;;;;23.50;13.20;;;;;;;5.10;100.00;99268.64;105716;1251;73761;-79
2024/01/04 06:23:51;;;;;;;16.90;10.20;;;;;;;5.17;100.00;99261.61;105743;1251;63869;-77
2024/01/04 06:26:23;;;;;;;17.10;10.60;;;;;;;5.25;100.00;99259.47;105943;1251;71777;-77
2024/01/04 06:28:51;;;;;;;18.40;10.90;;;;;;;5.31;100.00;99258.41;105663;1257;60581;-78
2024/01/04 06:31:18;;;;;;;19.80;10.60;;;;;;;5.35;100.00;99262.63;105717;1253;60356;-76
2024/01/04 06:33:46;;;;;;;15.40;9.90;;;;;;;5.38;100.00;99269.59;105892;1257;73800;-76
2024/01/04 06:36:14;;;;;;;17.90;10.90;;;;;;;5.41;100.00;99272.00;105691;1251;62853;-79
2024/01/04 06:38:41;;;;;;;17.60;11.10;;;;;;;5.45;100.00;99277.50;105698;1253;71408;-78
2024/01/04 06:41:10;;;;;;;19.90;12.20;;;;;;;5.49;100.00;99278.27;105718;1254;60533;-79
2024/01/04 06:43:38;;;;;;;18.60;11.10;;;;;;;5.51;100.00;99284.58;105648;1257;60432;-76
2024/01/04 06:46:05;;;;;;;21.50;12.70;;;;;;;5.52;100.00;99282.08;105678;1251;72669;-77
2024/01/04 06:48:33;;;;;;;23.90;14.40;;;;;;;5.54;100.00;99285.95;105734;1253;63676;-76
2024/01/04 06:51:01;;;;;;;26.50;14.60;;;;;;;5.56;100.00;99285.81;105797;1251;71853;-76
2024/01/04 06:53:28;;;;;;;21.90;13.30;;;;;;;5.59;100.00;99293.08;105686;1257;60483;-76
2024/01/04 06:55:55;;;;;;;24.50;14.60;;;;;;;5.61;100.00;99291.73;105911;1256;60428;-77
2024/01/04 06:58:23;;;;;;;20.60;13.40;;;;;;;5.61;100.00;99290.52;105877;1256;73874;-76
2024/01/04 07:00:52;;;;;;;21.10;12.90;;;;;;;5.62;100.00;99292.39;105709;1251;63673;-79
2024/01/04 07:03:20;;;;;;;24.70;13.40;;;;;;;5.65;100.00;99294.11;106017;1253;71518;-78
2024/01/04 07:05:48;;;;;;;18.40;12.50;;;;;;;5.67;100.00;99291.89;105848;1252;60439;-79
2024/01/04 07:08:16;;;;;;;16.40;11.70;;;;;;;5.70;100.00;99289.30;105956;1252;60322;-76
2024/01/04 07:10:44;;;;;;;19.50;12.60;;;;;;;5.73;100.00;99290.53;105827;1251;72718;-76
2024/01/04 07:13:12;;;;;;;18.00;12.40;;;;;;;5.76;100.00;99292.08;105890;1256;63563;-75
2024/01/04 07:15:39;;;;;;;16.10;12.20;;;;;;;5.77;100.00;99292.99;105832;1254;71470;-75
2024/01/04 07:18:07;;;;;;;18.00;12.80;;;;;;;5.78;100.00;99298.15;105745;1253;61070;-75
2024/01/04 07:20:35;;;;;;;16.10;11.40;;;;;;;5.82;100.00;99302.62;105845;1253;60378;-77
2024/01/04 07:23:03;;;;;;;14.20;10.50;;;;;;;5.87;100.00;99317.60;105813;1256;71902;-76
2024/01/04 07:25:34;;;;;;;16.50;11.80;;;;;;;5.90;100.00;99319.45;105970;1251;63586;-75
2024/01/04 07:28:03;;;;;;;21.60;13.50;;;;;;;5.95;100.00;99317.77;105771;1259;72771;-75
2024/01/04 07:30:31;;;;;;;17.60;12.40;;;;;;;6.02;100.00;99312.36;105802;1260;60521;-76
2024/01/04 07:32:59;;;;;;;17.10;11.40;;;;;;;6.10;100.00;99312.18;105783;1252;60407;-75
2024/01/04 07:35:31;;;;;;;19.50;11.20;;;;;;;6.21;100.00;99311.80;105834;1251;72544;-78
2024/01/04 07:37:59;;;;;;;17.40;11.20;;;;;;;6.32;100.00;99306.77;105764;1251;62307;-77
2024/01/04 07:40:26;;;;;;;20.10;11.30;;;;;;;6.44;100.00;99303.76;105827;1252;72706;-76
2024/01/04 07:42:54;;;;;;;15.80;10.10;;;;;;;6.55;100.00;99299.06;105785;1251;60979;-77
2024/01/04 07:45:21;;;;;;;27.40;15.60;;;;;;;6.66;100.00;99292.87;105882;1258;60671;-79
2024/01/04 07:47:49;;;;;;;14.40;10.30;;;;;;;6.74;100.00;99291.44;105756;1251;74575;-78
2024/01/04 07:50:16;;;;;;;19.80;10.70;;;;;;;6.81;100.00;99287.16;105741;1251;64873;-79
2024/01/04 07:52:44;;;;;;;15.30;9.60;;;;;;;6.86;100.00;99294.11;105857;1256;71398;-77
2024/01/04 07:55:12;;;;;;;18.40;9.90;;;;;;;6.92;100.00;99303.27;105981;1251;60515;-78
2024/01/04 07:57:39;;;;;;;13.00;9.20;;;;;;;6.96;100.00;99308.55;105914;1251;60546;-78
2024/01/04 08:00:08;;;;;;;14.60;8.70;;;;;;;6.99;100.00;99318.77;105916;1251;73889;-78
2024/01/04 08:02:39;;;;;;;14.20;9.90;;;;;;;7.01;100.00;99318.48;105911;1256;63488;-77
2024/01/04 08:05:09;;;;;;;16.90;10.80;;;;;;;7.02;100.00;99322.23;105934;1253;71804;-79
2024/01/04 08:07:37;;;;;;;15.70;9.40;;;;;;;7.04;100.00;99330.97;105782;1251;60967;-78
2024/01/04 08:10:08;;;;;;;13.30;9.50;;;;;;;7.05;100.00;99335.06;105795;1251;60435;-76
2024/01/04 08:12:39;;;;;;;13.70;9.70;;;;;;;7.07;100.00;99339.28;106038;1251;73895;-77
2024/01/04 08:15:08;;;;;;;19.40;10.50;;;;;;;7.08;100.00;99344.63;105763;1251;64393;-76
2024/01/04 08:17:36;;;;;;;17.40;9.90;;;;;;;7.07;100.00;99346.25;105991;1251;73021;-77
2024/01/04 08:20:05;;;;;;;14.30;9.50;;;;;;;7.05;100.00;99343.95;105952;1253;60537;-77
2024/01/04 08:22:33;;;;;;;15.70;10.00;;;;;;;7.03;100.00;99341.82;105875;1251;62236;-77
2024/01/04 08:25:00;;;;;;;18.40;11.30;;;;;;;7.03;100.00;99337.67;105761;1252;71658;-76
2024/01/04 08:27:28;;;;;;;14.80;10.20;;;;;;;7.02;100.00;99332.11;105799;1251;64740;-77
2024/01/04 08:29:55;;;;;;;13.80;10.40;;;;;;;7.06;100.00;99332.42;105772;1257;73028;-77
2024/01/04 08:32:23;;;;;;;15.60;10.20;;;;;;;7.11;100.00;99331.74;105813;1253;60567;-77
2024/01/04 08:34:51;;;;;;;14.20;9.30;;;;;;;7.15;100.00;99331.33;105911;1256;60428;-76
2024/01/04 08:37:20;;;;;;;13.10;10.00;;;;;;;7.18;100.00;99330.91;105866;1256;73954;-78
2024/01/04 08:39:47;;;;;;;20.60;11.50;;;;;;;7.23;100.00;99330.57;105760;1251;62269;-76
2024/01/04 08:42:15;;;;;;;18.80;11.40;;;;;;;7.30;100.00;99331.70;105856;1251;72765;-77
2024/01/04 08:44:47;;;;;;;19.20;12.80;;;;;;;7.37;100.00;99328.45;105936;1252;60502;-77
2024/01/04 08:47:14;;;;;;;16.80;11.70;;;;;;;7.42;100.00;99326.86;105796;1252;60524;-76
2024/01/04 08:49:42;;;;;;;18.00;12.40;;;;;;;7.47;100.00;99329.65;105697;1255;74543;-77
2024/01/04 08:52:10;;;;;;;17.30;11.20;;;;;;;7.52;100.00;99343.25;105819;1257;64043;-75
2024/01/04 08:54:38;;;;;;;13.90;11.60;;;;;;;7.53;100.00;99346.65;105899;1253;71300;-76
2024/01/04 08:57:07;;;;;;;19.00;11.20;;;;;;;7.52;100.00;99346.73;105823;1254;60622;-76
2024/01/04 08:59:35;;;;;;;18.40;11.10;;;;;;;7.53;100.00;99349.12;105792;1255;60343;-78
2024/01/04 09:02:02;;;;;;;15.30;10.80;;;;;;;7.55;100.00;99342.51;105787;1251;72661;-78
2024/01/04 09:04:30;;;;;;;14.00;9.50;;;;;;;7.58;100.00;99347.20;105766;1253;62875;-77
2024/01/04 09:06:58;;;;;;;18.10;11.20;;;;;;;7.62;100.00;99349.52;105893;1255;71658;-77
2024/01/04 09:09:26;;;;;;;18.70;11.80;;;;;;;7.65;100.00;99357.65;106019;1253;60518;-78
2024/01/04 09:11:53;;;;;;;17.00;10.90;;;;;;;7.66;100.00;99355.51;105787;1251;60688;-77
2024/01/04 09:14:21;;;;;;;21.80;12.20;;;;;;;7.64;100.00;99357.75;105775;1252;75620;-78
2024/01/04 09:16:49;;;;;;;30.10;15.50;;;;;;;7.60;100.00;99354.55;105786;1253;63184;-76
2024/01/04 09:19:17;;;;;;;18.40;12.00;;;;;;;7.57;100.00;99355.45;105798;1257;72678;-76
2024/01/04 09:21:52;;;;;;;14.50;10.20;;;;;;;7.53;100.00;99348.95;105893;1253;61294;-77
2024/01/04 09:24:20;;;;;;;12.70;9.60;;;;;;;7.54;100.00;99343.81;105872;1251;62051;-78
2024/01/04 09:26:48;;;;;;;13.40;9.10;;;;;;;7.56;100.00;99344.37;105846;1251;72783;-78
2024/01/04 09:29:17;;;;;;;14.50;9.90;;;;;;;7.56;100.00;99341.73;106635;1251;63659;-74
2024/01/04 09:31:45;;;;;;;15.60;10.10;;;;;;;7.57;100.00;99347.64;106619;1253;74988;-77
2024/01/04 09:34:12;;;;;;;12.40;9.20;;;;;;;7.56;100.00;99345.08;106032;1253;61608;-79
2024/01/04 09:36:40;;;;;;;13.60;9.20;;;;;;;7.55;100.00;99340.60;105914;1251;60507;-78
2024/01/04 09:39:08;;;;;;;16.10;9.80;;;;;;;7.55;100.00;99348.92;105909;1255;72641;-78
2024/01/04 09:41:36;;;;;;;17.10;9.00;;;;;;;7.57;100.00;99344.33;105951;1251;63633;-78
2024/01/04 09:44:04;;;;;;;13.30;8.20;;;;;;;7.57;100.00;99345.01;105998;1253;72729;-79
2024/01/04 09:46:35;;;;;;;9.70;7.60;;;;;;;7.57;100.00;99344.67;105757;1259;60573;-77
2024/01/04 09:49:04;;;;;;;16.70;7.80;;;;;;;7.56;100.00;99345.61;105857;1255;60377;-79
2024/01/04 09:51:34;;;;;;;12.10;7.90;;;;;;;7.55;100.00;99336.12;105778;1251;73706;-77
2024/01/04 09:54:02;;;;;;;12.20;7.70;;;;;;;7.53;100.00;99335.55;105986;1251;63614;-78
2024/01/04 09:56:32;;;;;;;10.40;7.70;;;;;;;7.52;100.00;99337.89;105818;1253;71463;-78
2024/01/04 09:59:00;;;;;;;11.50;8.10;;;;;;;7.49;100.00;99346.41;105925;1253;61404;-77
2024/01/04 10:01:33;;;;;;;13.10;7.50;;;;;;;7.47;100.00;99345.84;105879;1253;60530;-76
2024/01/04 10:04:06;;;;;;;10.70;7.80;;;;;;;7.44;100.00;99346.05;105929;1256;73838;-77
2024/01/04 10:06:35;;;;;;;12.40;8.20;;;;;;;7.39;100.00;99343.58;105718;1253;62943;-76
2024/01/04 10:09:19;;;;;;;11.60;7.90;;;;;;;7.35;100.00;99344.41;105978;1251;75681;-77
2024/01/04 10:12:07;;;;;;;13.20;8.70;;;;;;;7.32;100.00;99346.33;105815;1252;60425;-77
2024/01/04 10:14:35;;;;;;;13.50;8.00;;;;;;;7.31;100.00;99346.23;105721;1257;60381;-77
2024/01/04 10:17:03;;;;;;;12.50;7.80;;;;;;;7.31;100.00;99341.52;105830;1251;74644;-78
2024/01/04 10:19:32;;;;;;;11.20;8.70;;;;;;;7.30;100.00;99334.31;105896;1257;63719;-78
2024/01/04 10:22:03;;;;;;;12.50;9.00;;;;;;;7.28;100.00;99329.77;105743;1254;74005;-77
2024/01/04 10:24:37;;;;;;;17.80;8.60;;;;;;;7.28;100.00;99324.34;105764;1256;60531;-77
2024/01/04 10:27:05;;;;;;;15.90;9.00;;;;;;;7.30;100.00;99316.20;105714;1257;60347;-75
2024/01/04 10:29:35;;;;;;;13.60;8.80;;;;;;;7.32;100.00;99318.69;105835;1252;75521;-77
2024/01/04 10:32:04;;;;;;;15.90;9.70;;;;;;;7.35;100.00;99323.70;105861;1253;64236;-78
2024/01/04 10:34:34;;;;;;;14.00;9.90;;;;;;;7.37;100.00;99328.46;105846;1253;73091;-78
2024/01/04 10:37:21;;;;;;;13.90;9.40;;;;;;;7.37;100.00;99337.10;105835;1251;61551;-76
2024/01/04 10:42:22;;;;;;;13.80;8.70;;;;;;;7.38;100.00;99353.91;102535;1296;614838;-75
2024/01/04 10:44:53;;;;;;;11.40;9.00;;;;;;;7.35;100.00;99331.35;104726;1270;59676;-75
2024/01/04 10:47:19;;;;;;;14.30;10.50;;;;;;;7.33;100.00;99318.24;104895;1266;60141;-75
2024/01/04 10:49:48;;;;;;;10.90;8.60;;;;;;;7.29;100.00;99317.33;104946;1269;72121;-76
2024/01/04 10:52:19;;;;;;;17.10;10.30;;;;;;;7.23;100.00;99296.67;104971;1269;62682;-76
2024/01/04 10:54:47;;;;;;;13.20;9.50;;;;;;;7.18;100.00;99290.94;104813;1270;210276;-76
2024/01/04 10:57:15;;;;;;;14.50;10.20;;;;;;;7.15;100.00;99289.96;104941;1269;59649;-78
2024/01/04 10:59:43;;;;;;;14.50;10.90;;;;;;;7.11;100.00;99282.92;105152;1268;59222;-79
2024/01/04 11:02:12;;;;;;;19.20;12.60;;;;;;;7.07;100.00;99279.36;105029;1267;72603;-77
2024/01/04 11:04:39;;;;;;;22.10;16.20;;;;;;;7.01;100.00;99276.95;104931;1269;63985;-77
2024/01/04 11:07:06;;;;;;;16.20;13.10;;;;;;;6.95;100.00;99274.27;105411;1260;72131;-77
2024/01/04 11:09:34;;;;;;;19.70;13.50;;;;;;;6.90;100.00;99270.60;105533;1262;61174;-77
2024/01/04 11:12:03;;;;;;;16.30;12.30;;;;;;;6.86;100.00;99270.16;105605;1257;59884;-76
2024/01/04 11:14:30;;;;;;;14.40;9.40;;;;;;;6.83;100.00;99272.59;105355;1265;73065;-77
2024/01/04 11:17:11;;;;;;;16.40;10.70;;;;;;;6.82;100.00;99270.54;105560;1256;63919;-77
2024/01/04 11:19:44;;;;;;;12.90;10.30;;;;;;;6.83;100.00;99271.36;105666;1257;71048;-77